createdAt,value
2018-07-15T00:01:36.141Z,100670.45
2018-07-15T00:04:05.782Z,100667.73
2018-07-15T00:06:35.631Z,100669.23
2018-07-15T00:09:06.858Z,100666.95
2018-07-15T00:11:36.494Z,100661.91
2018-07-15T00:14:06.085Z,100659.09
2018-07-15T00:16:35.759Z,100664.06
2018-07-15T00:19:05.460Z,100664.77
2018-07-15T00:21:35.160Z,100665.17
2018-07-15T00:24:04.822Z,100661.16
2018-07-15T00:26:34.461Z,100667.16
2018-07-15T00:29:04.068Z,100659.56
2018-07-15T00:31:34.035Z,100656.48
2018-07-15T00:34:03.834Z,100659.58
2018-07-15T00:36:33.604Z,100663.08
2018-07-15T00:39:03.355Z,100660.97
2018-07-15T00:41:33.230Z,100659.52
2018-07-15T00:44:02.884Z,100662.16
2018-07-15T00:46:32.844Z,100660.17
2018-07-15T00:49:02.490Z,100663.30
2018-07-15T00:51:32.080Z,100656.24
2018-07-15T00:54:01.662Z,100659.41
2018-07-15T00:56:31.225Z,100659.18
2018-07-15T00:59:00.861Z,100656.91
2018-07-15T01:01:30.967Z,100658.70
2018-07-15T01:04:01.312Z,100658.81
2018-07-15T01:06:31.215Z,100657.11
2018-07-15T01:09:00.582Z,100657.87
2018-07-15T01:11:30.527Z,100655.77
2018-07-15T01:14:00.148Z,100654.30
2018-07-15T01:16:29.718Z,100652.16
2018-07-15T01:18:59.348Z,100654.78
2018-07-15T01:21:29.600Z,100649.64
2018-07-15T01:23:59.543Z,100651.33
2018-07-15T01:26:29.085Z,100655.55
2018-07-15T01:28:58.731Z,100655.27
2018-07-15T01:31:28.614Z,100654.41
2018-07-15T01:33:59.090Z,100649.52
2018-07-15T01:36:28.809Z,100646.64
2018-07-15T01:38:58.387Z,100649.69
2018-07-15T01:41:27.948Z,100644.12
2018-07-15T01:43:57.505Z,100653.17
2018-07-15T01:46:27.118Z,100647.34
2018-07-15T01:48:56.712Z,100651.23
2018-07-15T01:51:26.309Z,100641.41
2018-07-15T01:53:55.974Z,100643.80
2018-07-15T01:56:25.589Z,100644.03
2018-07-15T01:58:55.120Z,100639.12
2018-07-15T02:01:24.767Z,100645.91
2018-07-15T02:03:54.306Z,100644.20
2018-07-15T02:06:23.851Z,100636.64
2018-07-15T02:08:53.432Z,100635.69
2018-07-15T02:11:23.016Z,100638.52
2018-07-15T02:13:52.585Z,100640.52
2018-07-15T02:16:22.152Z,100637.20
2018-07-15T02:18:51.688Z,100632.18
2018-07-15T02:21:21.617Z,100639.69
2018-07-15T02:23:51.180Z,100638.34
2018-07-15T02:26:21.280Z,100636.40
2018-07-15T02:28:51.132Z,100634.34
2018-07-15T02:31:21.168Z,100639.69
2018-07-15T02:33:50.772Z,100633.23
2018-07-15T02:36:20.661Z,100636.78
2018-07-15T02:38:50.231Z,100641.45
2018-07-15T02:41:19.886Z,100642.30
2018-07-15T02:43:49.589Z,100641.16
2018-07-15T02:46:19.150Z,100642.07
2018-07-15T02:48:48.726Z,100641.16
2018-07-15T02:51:18.306Z,100639.39
2018-07-15T02:53:47.872Z,100645.94
2018-07-15T02:56:17.492Z,100646.52
2018-07-15T02:58:47.059Z,100645.17
2018-07-15T03:01:16.588Z,100641.83
2018-07-15T03:03:46.160Z,100639.16
2018-07-15T03:06:16.667Z,100644.30
2018-07-15T03:08:46.340Z,100639.92
2018-07-15T03:11:15.886Z,100641.40
2018-07-15T03:13:45.417Z,100638.14
2018-07-15T03:16:15.095Z,100632.03
2018-07-15T03:18:45.200Z,100629.51
2018-07-15T03:21:14.988Z,100629.59
2018-07-15T03:23:44.640Z,100630.47
2018-07-15T03:26:14.243Z,100626.48
2018-07-15T03:28:43.773Z,100624.53
2018-07-15T03:31:13.428Z,100619.03
2018-07-15T03:33:42.945Z,100623.71
2018-07-15T03:36:12.816Z,100627.58
2018-07-15T03:38:42.366Z,100619.33
2018-07-15T03:41:11.888Z,100621.86
2018-07-15T03:43:41.473Z,100629.16
2018-07-15T03:46:11.003Z,100623.63
2018-07-15T03:48:40.609Z,100618.90
2018-07-15T03:51:10.195Z,100619.63
2018-07-15T03:53:39.741Z,100621.92
2018-07-15T03:56:09.450Z,100628.61
2018-07-15T03:58:38.984Z,100630.84
2018-07-15T04:01:08.527Z,100626.33
2018-07-15T04:03:38.190Z,100619.98
2018-07-15T04:06:07.911Z,100619.01
2018-07-15T04:08:37.506Z,100622.45
2018-07-15T04:11:07.340Z,100611.92
2018-07-15T04:13:36.880Z,100615.14
2018-07-15T04:16:06.472Z,100611.86
2018-07-15T04:18:36.012Z,100608.64
2018-07-15T04:21:05.694Z,100609.52
2018-07-15T04:23:35.238Z,100607.31
2018-07-15T04:26:04.848Z,100605.31
2018-07-15T04:28:34.441Z,100604.27
2018-07-15T04:31:04.024Z,100606.44
2018-07-15T04:33:33.592Z,100606.50
2018-07-15T04:36:02.853Z,100604.23
2018-07-15T04:38:32.677Z,100610.36
2018-07-15T04:41:02.385Z,100609.52
2018-07-15T04:43:32.269Z,100603.00
2018-07-15T04:46:01.874Z,100604.27
2018-07-15T04:48:31.841Z,100607.75
2018-07-15T04:51:01.467Z,100602.87
2018-07-15T04:53:31.342Z,100606.82
2018-07-15T04:56:00.897Z,100603.53
2018-07-15T04:58:31.705Z,100608.86
2018-07-15T05:01:01.352Z,100607.02
2018-07-15T05:03:31.137Z,100608.38
2018-07-15T05:06:00.953Z,100609.45
2018-07-15T05:08:30.686Z,100606.45
2018-07-15T05:11:00.248Z,100610.88
2018-07-15T05:13:29.987Z,100613.19
2018-07-15T05:15:59.613Z,100618.73
2018-07-15T05:18:29.269Z,100615.64
2018-07-15T05:20:58.827Z,100620.69
2018-07-15T05:23:28.442Z,100623.12
2018-07-15T05:25:58.097Z,100629.69
2018-07-15T05:28:27.674Z,100627.41
2018-07-15T05:30:57.385Z,100633.37
2018-07-15T05:33:26.916Z,100628.43
2018-07-15T05:35:56.479Z,100630.63
2018-07-15T05:38:26.037Z,100625.97
2018-07-15T05:40:55.575Z,100630.62
2018-07-15T05:43:25.137Z,100635.88
2018-07-15T05:45:54.719Z,100632.77
2018-07-15T05:48:24.361Z,100626.80
2018-07-15T05:50:53.933Z,100638.23
2018-07-15T05:53:24.265Z,100636.76
2018-07-15T05:55:53.905Z,100630.53
2018-07-15T05:58:23.571Z,100636.38
2018-07-15T06:00:53.194Z,100637.88
2018-07-15T06:03:23.196Z,100631.81
2018-07-15T06:05:52.894Z,100632.42
2018-07-15T06:08:22.567Z,100634.02
2018-07-15T06:10:52.221Z,100636.44
2018-07-15T06:13:21.863Z,100631.34
2018-07-15T06:15:51.407Z,100637.95
2018-07-15T06:18:21.030Z,100638.84
2018-07-15T06:20:50.682Z,100634.13
2018-07-15T06:23:20.341Z,100633.05
2018-07-15T06:25:49.934Z,100638.75
2018-07-15T06:28:19.524Z,100636.31
2018-07-15T06:30:49.137Z,100638.20
2018-07-15T06:33:18.701Z,100638.05
2018-07-15T06:35:48.405Z,100635.77
2018-07-15T06:38:17.963Z,100626.92
2018-07-15T06:40:47.615Z,100624.97
2018-07-15T06:43:17.425Z,100633.34
2018-07-15T06:45:47.012Z,100636.28
2018-07-15T06:48:16.623Z,100628.90
2018-07-15T06:50:46.371Z,100628.58
2018-07-15T06:53:16.210Z,100626.33
2018-07-15T06:55:45.757Z,100628.11
2018-07-15T06:58:15.420Z,100628.81
2018-07-15T07:00:45.069Z,100628.13
2018-07-15T07:03:14.706Z,100624.21
2018-07-15T07:05:44.623Z,100630.79
2018-07-15T07:08:13.923Z,100626.84
2018-07-15T07:10:44.009Z,100630.65
2018-07-15T07:13:13.751Z,100620.86
2018-07-15T07:15:44.016Z,100621.56
2018-07-15T07:18:13.593Z,100623.55
2018-07-15T07:20:43.444Z,100619.95
2018-07-15T07:23:12.996Z,100624.14
2018-07-15T07:25:43.356Z,100623.07
2018-07-15T07:28:12.932Z,100625.77
2018-07-15T07:30:42.658Z,100628.38
2018-07-15T07:33:12.325Z,100624.53
2018-07-15T07:35:41.988Z,100618.80
2018-07-15T07:38:11.616Z,100628.06
2018-07-15T07:40:41.189Z,100625.99
2018-07-15T07:43:10.958Z,100623.59
2018-07-15T07:45:40.555Z,100624.98
2018-07-15T07:48:10.202Z,100627.92
2018-07-15T07:50:39.772Z,100628.69
2018-07-15T07:53:09.537Z,100628.64
2018-07-15T07:55:39.217Z,100630.38
2018-07-15T07:58:09.146Z,100620.48
2018-07-15T08:00:38.745Z,100624.63
2018-07-15T08:03:08.406Z,100618.69
2018-07-15T08:05:38.049Z,100624.97
2018-07-15T08:08:07.883Z,100631.10
2018-07-15T08:10:37.541Z,100627.52
2018-07-15T08:13:07.483Z,100620.39
2018-07-15T08:15:37.380Z,100620.95
2018-07-15T08:18:07.065Z,100619.31
2018-07-15T08:20:36.799Z,100627.88
2018-07-15T08:23:06.372Z,100625.46
2018-07-15T08:25:36.089Z,100620.73
2018-07-15T08:28:05.823Z,100618.42
2018-07-15T08:30:52.407Z,100621.59
2018-07-15T08:33:21.997Z,100622.48
2018-07-15T08:35:58.280Z,100621.47
2018-07-15T08:38:28.206Z,100624.16
2018-07-15T08:40:57.854Z,100615.47
2018-07-15T08:43:27.627Z,100628.16
2018-07-15T08:45:57.301Z,100615.45
2018-07-15T08:48:26.981Z,100622.66
2018-07-15T08:50:56.681Z,100616.77
2018-07-15T08:53:26.287Z,100619.34
2018-07-15T08:55:56.197Z,100618.45
2018-07-15T08:58:25.808Z,100619.33
2018-07-15T09:00:55.401Z,100619.78
2018-07-15T09:03:25.216Z,100606.25
2018-07-15T09:05:55.052Z,100607.05
2018-07-15T09:08:24.710Z,100600.64
2018-07-15T09:10:54.567Z,100606.98
2018-07-15T09:13:24.169Z,100608.80
2018-07-15T09:15:54.821Z,100605.08
2018-07-15T09:18:25.034Z,100602.19
2018-07-15T09:20:55.207Z,100599.72
2018-07-15T09:23:24.849Z,100602.70
2018-07-15T09:25:54.604Z,100600.70
2018-07-15T09:28:24.323Z,100600.75
2018-07-15T09:30:54.097Z,100600.51
2018-07-15T09:33:23.843Z,100606.55
2018-07-15T09:35:53.493Z,100606.48
2018-07-15T09:38:23.155Z,100599.81
2018-07-15T09:40:52.798Z,100600.97
2018-07-15T09:43:22.503Z,100604.01
2018-07-15T09:45:52.087Z,100600.25
2018-07-15T09:48:21.621Z,100597.96
2018-07-15T09:50:51.255Z,100592.75
2018-07-15T09:53:20.953Z,100600.91
2018-07-15T09:55:50.570Z,100606.75
2018-07-15T09:58:20.196Z,100593.63
2018-07-15T10:00:55.940Z,100591.59
2018-07-15T10:03:26.614Z,100595.81
2018-07-15T10:05:56.928Z,100587.11
2018-07-15T10:08:26.655Z,100589.52
2018-07-15T10:10:56.445Z,100581.40
2018-07-15T10:13:26.218Z,100587.70
2018-07-15T10:16:02.568Z,100583.87
2018-07-15T10:18:32.276Z,100581.34
2018-07-15T10:21:02.134Z,100585.84
2018-07-15T10:23:31.855Z,100584.03
2018-07-15T10:26:01.611Z,100574.22
2018-07-15T10:28:31.267Z,100568.27
2018-07-15T10:31:01.239Z,100566.91
2018-07-15T10:33:30.892Z,100572.91
2018-07-15T10:36:00.727Z,100566.25
2018-07-15T10:38:30.339Z,100568.80
2018-07-15T10:40:59.979Z,100566.75
2018-07-15T10:43:29.635Z,100557.06
2018-07-15T10:45:59.396Z,100556.71
2018-07-15T10:48:29.171Z,100557.72
2018-07-15T10:50:58.871Z,100544.42
2018-07-15T10:53:28.613Z,100544.16
2018-07-15T10:55:58.323Z,100544.08
2018-07-15T10:58:28.065Z,100545.71
2018-07-15T11:00:57.963Z,100547.58
2018-07-15T11:03:27.691Z,100544.30
2018-07-15T11:05:57.338Z,100545.31
2018-07-15T11:08:27.225Z,100540.15
2018-07-15T11:10:57.571Z,100538.34
2018-07-15T11:13:27.364Z,100538.61
2018-07-15T11:15:57.075Z,100527.89
2018-07-15T11:18:26.831Z,100530.91
2018-07-15T11:20:56.643Z,100536.75
2018-07-15T11:23:26.330Z,100525.87
2018-07-15T11:25:56.841Z,100523.03
2018-07-15T11:28:26.649Z,100516.94
2018-07-15T11:30:56.732Z,100520.56
2018-07-15T11:33:26.251Z,100519.34
2018-07-15T11:35:55.907Z,100512.23
2018-07-15T11:38:25.540Z,100512.44
2018-07-15T11:40:55.238Z,100513.59
2018-07-15T11:43:24.949Z,100517.91
2018-07-15T11:45:54.596Z,100512.44
2018-07-15T11:48:24.298Z,100515.01
2018-07-15T11:50:54.027Z,100511.58
2018-07-15T11:53:23.759Z,100516.92
2018-07-15T11:55:54.134Z,100507.92
2018-07-15T11:58:23.898Z,100509.13
2018-07-15T12:00:53.643Z,100504.72
2018-07-15T12:03:23.340Z,100501.71
2018-07-15T12:05:53.715Z,100490.63
2018-07-15T12:08:23.532Z,100497.12
2018-07-15T12:10:53.241Z,100485.13
2018-07-15T12:13:23.188Z,100477.33
2018-07-15T12:15:52.919Z,100489.76
2018-07-15T12:18:22.759Z,100489.33
2018-07-15T12:20:52.382Z,100483.96
2018-07-15T12:23:21.954Z,100487.73
2018-07-15T12:25:51.981Z,100473.64
2018-07-15T12:28:21.737Z,100485.39
2018-07-15T12:30:51.319Z,100469.59
2018-07-15T12:33:21.043Z,100462.92
2018-07-15T12:35:50.654Z,100469.55
2018-07-15T12:38:20.305Z,100467.45
2018-07-15T12:40:49.979Z,100457.37
2018-07-15T12:43:19.737Z,100450.89
2018-07-15T12:45:49.431Z,100462.30
2018-07-15T12:48:19.095Z,100453.00
2018-07-15T12:50:48.831Z,100446.86
2018-07-15T12:53:18.464Z,100437.16
2018-07-15T12:55:48.062Z,100439.40
2018-07-15T12:58:17.778Z,100441.34
2018-07-15T13:00:47.408Z,100431.62
2018-07-15T13:03:17.152Z,100429.34
2018-07-15T13:05:46.894Z,100426.83
2018-07-15T13:08:16.541Z,100429.59
2018-07-15T13:10:46.308Z,100420.83
2018-07-15T13:13:16.719Z,100422.08
2018-07-15T13:15:46.294Z,100421.88
2018-07-15T13:18:16.031Z,100418.77
2018-07-15T13:20:45.918Z,100415.31
2018-07-15T13:23:15.554Z,100412.64
2018-07-15T13:25:45.277Z,100415.52
2018-07-15T13:28:15.628Z,100406.92
2018-07-15T13:30:45.823Z,100406.80
2018-07-15T13:33:15.832Z,100406.11
2018-07-15T13:35:46.161Z,100404.36
2018-07-15T13:38:15.956Z,100400.21
2018-07-15T13:40:46.271Z,100395.38
2018-07-15T13:43:16.000Z,100398.84
2018-07-15T13:45:45.917Z,100403.46
2018-07-15T13:48:15.756Z,100401.48
2018-07-15T13:50:45.435Z,100404.24
2018-07-15T13:53:15.287Z,100399.63
2018-07-15T13:55:44.933Z,100391.28
2018-07-15T13:58:14.794Z,100388.16
2018-07-15T14:00:44.380Z,100390.25
2018-07-15T14:03:14.407Z,100390.67
2018-07-15T14:05:44.106Z,100399.53
2018-07-15T14:08:14.081Z,100394.61
2018-07-15T14:10:43.935Z,100383.31
2018-07-15T14:13:13.886Z,100378.20
2018-07-15T14:15:44.340Z,100387.19
2018-07-15T14:18:14.382Z,100386.48
2018-07-15T14:20:44.036Z,100384.64
2018-07-15T14:23:14.032Z,100382.28
2018-07-15T14:25:43.830Z,100377.41
2018-07-15T14:28:13.558Z,100390.44
2018-07-15T14:30:43.377Z,100374.66
2018-07-15T14:33:13.124Z,100368.51
2018-07-15T14:35:42.860Z,100368.81
2018-07-15T14:38:12.705Z,100360.76
2018-07-15T14:40:42.364Z,100362.55
2018-07-15T14:43:12.012Z,100364.84
2018-07-15T14:45:45.117Z,100360.09
2018-07-15T14:48:14.956Z,100352.47
2018-07-15T14:50:44.868Z,100350.66
2018-07-15T14:53:14.564Z,100359.48
2018-07-15T14:55:44.852Z,100351.08
2018-07-15T14:58:14.662Z,100355.04
2018-07-15T15:00:44.295Z,100356.30
2018-07-15T15:03:14.238Z,100353.05
2018-07-15T15:05:43.941Z,100348.30
2018-07-15T15:08:13.592Z,100343.39
2018-07-15T15:10:43.978Z,100339.64
2018-07-15T15:13:14.149Z,100336.08
2018-07-15T15:15:44.349Z,100339.16
2018-07-15T15:18:14.151Z,100334.50
2018-07-15T15:20:43.913Z,100348.77
2018-07-15T15:23:13.562Z,100346.41
2018-07-15T15:25:43.247Z,100342.00
2018-07-15T15:28:13.639Z,100349.91
2018-07-15T15:30:43.465Z,100341.67
2018-07-15T15:33:13.784Z,100341.79
2018-07-15T15:35:43.508Z,100330.97
2018-07-15T15:38:13.305Z,100328.05
2018-07-15T15:40:42.961Z,100329.27
2018-07-15T15:43:12.837Z,100337.78
2018-07-15T15:45:42.584Z,100333.61
2018-07-15T15:48:12.256Z,100335.91
2018-07-15T15:50:41.930Z,100327.24
2018-07-15T15:53:11.657Z,100326.23
2018-07-15T15:55:41.785Z,100320.19
2018-07-15T15:58:12.054Z,100321.69
2018-07-15T16:00:41.636Z,100318.89
2018-07-15T16:03:11.326Z,100316.25
2018-07-15T16:05:41.863Z,100317.36
2018-07-15T16:08:11.674Z,100324.00
2018-07-15T16:10:42.188Z,100329.27
2018-07-15T16:13:12.018Z,100309.76
2018-07-15T16:15:42.296Z,100300.84
2018-07-15T16:18:11.968Z,100299.55
2018-07-15T16:20:41.817Z,100305.75
2018-07-15T16:23:14.275Z,100301.94
2018-07-15T16:25:43.979Z,100295.16
2018-07-15T16:28:14.276Z,100298.50
2018-07-15T16:30:43.963Z,100299.38
2018-07-15T16:33:13.639Z,100304.16
2018-07-15T16:35:43.864Z,100302.50
2018-07-15T16:38:13.585Z,100302.36
2018-07-15T16:40:43.448Z,100301.56
2018-07-15T16:43:13.181Z,100293.34
2018-07-15T16:45:42.960Z,100296.30
2018-07-15T16:48:13.817Z,100296.25
2018-07-15T16:50:43.502Z,100295.38
2018-07-15T16:53:13.233Z,100297.41
2018-07-15T16:55:43.027Z,100301.55
2018-07-15T16:58:13.041Z,100295.73
2018-07-15T17:00:42.705Z,100295.36
2018-07-15T17:03:12.426Z,100295.04
2018-07-15T17:05:42.084Z,100294.39
2018-07-15T17:08:11.641Z,100291.69
2018-07-15T17:10:41.411Z,100292.48
2018-07-15T17:13:11.066Z,100289.38
2018-07-15T17:15:40.793Z,100286.52
2018-07-15T17:18:10.515Z,100291.48
2018-07-15T17:20:40.168Z,100291.05
2018-07-15T17:23:09.867Z,100294.39
2018-07-15T17:25:39.585Z,100291.37
2018-07-15T17:28:09.267Z,100288.52
2018-07-15T17:30:39.040Z,100288.94
2018-07-15T17:33:08.764Z,100290.82
2018-07-15T17:35:38.603Z,100293.99
2018-07-15T17:38:08.245Z,100293.53
2018-07-15T17:40:38.138Z,100295.81
2018-07-15T17:43:07.637Z,100289.48
2018-07-15T17:45:37.278Z,100301.70
2018-07-15T17:48:06.957Z,100292.62
2018-07-15T17:50:36.576Z,100293.92
2018-07-15T17:53:06.335Z,100293.26
2018-07-15T17:55:36.093Z,100289.77
2018-07-15T17:58:05.883Z,100296.78
2018-07-15T18:00:35.865Z,100298.69
2018-07-15T18:03:05.532Z,100300.20
2018-07-15T18:05:35.690Z,100293.20
2018-07-15T18:08:05.461Z,100297.44
2018-07-15T18:10:35.587Z,100295.41
2018-07-15T18:13:05.199Z,100298.23
2018-07-15T18:15:36.066Z,100291.38
2018-07-15T18:18:05.717Z,100284.98
2018-07-15T18:20:35.812Z,100286.86
2018-07-15T18:23:05.715Z,100287.55
2018-07-15T18:25:35.876Z,100289.11
2018-07-15T18:28:05.711Z,100290.12
2018-07-15T18:30:36.010Z,100295.81
2018-07-15T18:33:05.833Z,100292.08
2018-07-15T18:35:36.039Z,100296.18
2018-07-15T18:38:06.056Z,100289.45
2018-07-15T18:40:36.393Z,100290.45
2018-07-15T18:43:06.051Z,100286.69
2018-07-15T18:45:35.786Z,100284.84
2018-07-15T18:48:05.453Z,100278.56
2018-07-15T18:50:35.057Z,100281.73
2018-07-15T18:53:05.218Z,100274.73
2018-07-15T18:55:34.897Z,100273.76
2018-07-15T18:58:05.182Z,100278.00
2018-07-15T19:00:34.816Z,100285.06
2018-07-15T19:03:04.604Z,100283.53
2018-07-15T19:05:34.416Z,100290.95
2018-07-15T19:08:04.016Z,100291.33
2018-07-15T19:10:33.759Z,100300.09
2018-07-15T19:13:03.504Z,100294.77
2018-07-15T19:15:33.289Z,100295.44
2018-07-15T19:18:02.883Z,100300.09
2018-07-15T19:20:32.511Z,100301.02
2018-07-15T19:23:02.270Z,100298.87
2018-07-15T19:25:31.991Z,100301.67
2018-07-15T19:28:02.117Z,100304.52
2018-07-15T19:30:32.145Z,100307.88
2018-07-15T19:33:01.827Z,100313.34
2018-07-15T19:35:31.697Z,100313.09
2018-07-15T19:38:01.601Z,100315.67
2018-07-15T19:40:31.365Z,100316.28
2018-07-15T19:43:02.518Z,100312.78
2018-07-15T19:45:32.249Z,100321.41
2018-07-15T19:48:02.082Z,100322.02
2018-07-15T19:50:32.311Z,100320.70
2018-07-15T19:53:02.325Z,100318.87
2018-07-15T19:55:32.429Z,100319.27
2018-07-15T19:58:02.246Z,100325.20
2018-07-15T20:00:32.093Z,100317.50
2018-07-15T20:03:02.050Z,100318.41
2018-07-15T20:05:31.692Z,100315.45
2018-07-15T20:08:01.409Z,100323.62
2018-07-15T20:10:31.188Z,100317.09
2018-07-15T20:13:00.940Z,100320.19
2018-07-15T20:15:30.693Z,100317.85
2018-07-15T20:18:00.440Z,100323.88
2018-07-15T20:20:30.166Z,100326.11
2018-07-15T20:22:59.811Z,100313.86
2018-07-15T20:25:29.271Z,100319.02
2018-07-15T20:27:59.120Z,100315.80
2018-07-15T20:30:28.894Z,100311.00
2018-07-15T20:32:58.647Z,100317.01
2018-07-15T20:35:28.578Z,100324.87
2018-07-15T20:37:58.328Z,100325.70
2018-07-15T20:40:28.176Z,100333.29
2018-07-15T20:42:57.877Z,100332.74
2018-07-15T20:45:27.674Z,100334.40
2018-07-15T20:47:57.433Z,100331.16
2018-07-15T20:50:27.353Z,100332.01
2018-07-15T20:52:57.184Z,100334.98
2018-07-15T20:55:26.905Z,100339.86
2018-07-15T20:57:56.580Z,100334.47
2018-07-15T21:00:26.285Z,100338.30
2018-07-15T21:02:56.229Z,100339.91
2018-07-15T21:05:26.013Z,100342.37
2018-07-15T21:07:56.419Z,100346.73
2018-07-15T21:10:26.431Z,100344.56
2018-07-15T21:12:56.350Z,100344.03
2018-07-15T21:15:26.171Z,100348.63
2018-07-15T21:17:55.938Z,100350.79
2018-07-15T21:20:26.399Z,100352.41
2018-07-15T21:22:56.339Z,100343.77
2018-07-15T21:25:26.112Z,100336.46
2018-07-15T21:27:55.883Z,100342.66
2018-07-15T21:30:33.085Z,100342.66
2018-07-15T21:33:02.879Z,100354.54
2018-07-15T21:35:32.533Z,100352.37
2018-07-15T21:38:02.257Z,100355.84
2018-07-15T21:40:32.116Z,100355.27
2018-07-15T21:43:01.745Z,100354.98
2018-07-15T21:45:31.598Z,100351.45
2018-07-15T21:48:01.482Z,100357.94
2018-07-15T21:50:31.400Z,100355.31
2018-07-15T21:53:02.598Z,100348.80
2018-07-15T21:55:32.253Z,100353.89
2018-07-15T21:58:02.130Z,100353.89
2018-07-15T22:00:31.761Z,100356.84
2018-07-15T22:03:01.574Z,100358.14
2018-07-15T22:05:31.177Z,100362.14
2018-07-15T22:08:17.567Z,100358.34
2018-07-15T22:10:48.356Z,100362.97
2018-07-15T22:13:17.917Z,100365.67
2018-07-15T22:15:47.625Z,100366.25
2018-07-15T22:18:17.196Z,100368.37
2018-07-15T22:20:46.818Z,100366.17
2018-07-15T22:23:16.541Z,100368.33
2018-07-15T22:25:46.252Z,100368.56
2018-07-15T22:28:15.991Z,100364.23
2018-07-15T22:30:46.663Z,100369.63
2018-07-15T22:33:16.284Z,100363.13
2018-07-15T22:35:46.655Z,100369.25
2018-07-15T22:38:16.382Z,100368.16
2018-07-15T22:40:46.235Z,100364.63
2018-07-15T22:43:16.098Z,100361.70
2018-07-15T22:45:45.729Z,100361.64
2018-07-15T22:48:15.369Z,100364.57
2018-07-15T22:50:45.123Z,100365.82
2018-07-15T22:53:15.355Z,100364.91
2018-07-15T22:55:45.095Z,100369.18
2018-07-15T22:58:14.918Z,100367.56
2018-07-15T23:00:44.609Z,100365.95
2018-07-15T23:03:14.306Z,100363.30
2018-07-15T23:06:01.181Z,100367.14
2018-07-15T23:08:32.046Z,100375.22
2018-07-15T23:11:02.102Z,100368.17
2018-07-15T23:13:31.901Z,100369.22
2018-07-15T23:16:01.621Z,100372.45
2018-07-15T23:18:31.802Z,100364.88
2018-07-15T23:21:01.709Z,100368.38
2018-07-15T23:23:32.256Z,100364.30
2018-07-15T23:26:02.468Z,100361.80
2018-07-15T23:28:32.720Z,100362.48
2018-07-15T23:31:03.220Z,100369.78
2018-07-15T23:33:33.024Z,100362.11
2018-07-15T23:36:02.689Z,100361.81
2018-07-15T23:38:32.428Z,100362.61
2018-07-15T23:41:02.061Z,100353.63
2018-07-15T23:43:31.820Z,100351.04
2018-07-15T23:46:02.398Z,100354.86
2018-07-15T23:48:32.148Z,100352.66
2018-07-15T23:51:02.007Z,100348.48
2018-07-15T23:53:31.708Z,100345.88
2018-07-15T23:56:01.368Z,100344.70
2018-07-15T23:58:31.094Z,100346.33
